Time;durP1;ratioP1;P1;durP2;ratioP2;P2;SDS_P1;SDS_P2;PMS_P1;PMS_P2;Temp;Humidity;BMP_temperature;BMP_pressure;BME280_temperature;BME280_humidity;BME280_pressure;Samples;Min_cycle;Max_cycle;Signal;HPM_P1;HPM_P2
2022/09/24 00:01:11;;;;;;;11.50;10.53;;;;;;;;;;4990235;28;20933;-76
2022/09/24 00:03:38;;;;;;;11.90;10.90;;;;;;;;;;4990048;28;20451;-77
2022/09/24 00:06:06;;;;;;;12.00;11.00;;;;;;;;;;4990494;28;20464;-76
2022/09/24 00:08:33;;;;;;;11.13;10.23;;;;;;;;;;4990919;28;20476;-77
2022/09/24 00:11:02;;;;;;;12.37;11.23;;;;;;;;;;4992454;28;20909;-75
2022/09/24 00:13:30;;;;;;;13.17;11.80;;;;;;;;;;4991694;28;20511;-76
2022/09/24 00:16:02;;;;;;;12.80;11.70;;;;;;;;;;4990740;28;20877;-76
2022/09/24 00:18:29;;;;;;;12.10;11.03;;;;;;;;;;4986884;28;20472;-76
2022/09/24 00:20:56;;;;;;;13.23;12.07;;;;;;;;;;4988094;28;20511;-75
2022/09/24 00:23:23;;;;;;;13.20;12.00;;;;;;;;;;4989926;28;20444;-76
2022/09/24 00:28:36;;;;;;;15.90;12.57;;;;;;;;;;4994217;28;20574;-76
2022/09/24 00:31:05;;;;;;;14.33;12.93;;;;;;;;;;4994548;28;20498;-77
2022/09/24 00:33:33;;;;;;;14.77;13.37;;;;;;;;;;4993354;28;20995;-76
2022/09/24 00:36:01;;;;;;;16.07;12.63;;;;;;;;;;4994169;28;20974;-76
2022/09/24 00:38:28;;;;;;;14.53;13.20;;;;;;;;;;4994544;28;20460;-76
2022/09/24 00:40:55;;;;;;;14.03;12.77;;;;;;;;;;4994155;28;20813;-77
2022/09/24 00:43:26;;;;;;;14.20;12.90;;;;;;;;;;4993653;28;20440;-77
2022/09/24 00:45:55;;;;;;;15.17;13.47;;;;;;;;;;4994299;28;20444;-76
2022/09/24 00:48:22;;;;;;;14.67;13.43;;;;;;;;;;4994294;28;20548;-77
2022/09/24 00:50:50;;;;;;;15.27;13.87;;;;;;;;;;4999801;28;20468;-76
2022/09/24 00:53:18;;;;;;;15.50;14.00;;;;;;;;;;4998336;28;20480;-75
2022/09/24 00:55:46;;;;;;;15.77;14.20;;;;;;;;;;4998452;28;20471;-77
2022/09/24 00:58:14;;;;;;;15.37;13.87;;;;;;;;;;4999870;28;20514;-77
2022/09/24 01:00:43;;;;;;;14.60;13.40;;;;;;;;;;4994896;28;21018;-76
2022/09/24 01:03:13;;;;;;;15.77;14.20;;;;;;;;;;4998654;28;20444;-76
2022/09/24 01:05:40;;;;;;;14.67;13.13;;;;;;;;;;4994380;28;20482;-77
2022/09/24 01:08:07;;;;;;;15.30;13.80;;;;;;;;;;4993799;28;20457;-77
2022/09/24 01:10:50;;;;;;;14.60;13.20;;;;;;;;;;4993674;28;20456;-75
2022/09/24 01:13:23;;;;;;;15.10;13.80;;;;;;;;;;4973776;28;20999;-76
2022/09/24 01:15:54;;;;;;;14.90;13.37;;;;;;;;;;4974471;28;20459;-77
2022/09/24 01:18:30;;;;;;;14.53;13.13;;;;;;;;;;4974236;28;20465;-77
2022/09/24 01:21:04;;;;;;;14.90;13.60;;;;;;;;;;4974431;28;20492;-77
2022/09/24 01:23:42;;;;;;;15.17;13.67;;;;;;;;;;4976033;28;20513;-77
2022/09/24 01:26:18;;;;;;;14.97;13.60;;;;;;;;;;4976806;28;20457;-76
2022/09/24 01:28:54;;;;;;;14.57;13.20;;;;;;;;;;4979640;28;20468;-76
2022/09/24 01:31:27;;;;;;;13.67;12.33;;;;;;;;;;4979567;28;20453;-77
2022/09/24 01:33:54;;;;;;;15.50;14.00;;;;;;;;;;4975908;28;20484;-77
2022/09/24 01:36:23;;;;;;;14.60;13.30;;;;;;;;;;4973156;28;20830;-78
2022/09/24 01:38:52;;;;;;;14.33;13.13;;;;;;;;;;4974178;28;20468;-76
2022/09/24 01:41:19;;;;;;;15.17;13.73;;;;;;;;;;4973661;28;20445;-76
2022/09/24 01:43:47;;;;;;;14.97;13.43;;;;;;;;;;4973406;28;20589;-77
2022/09/24 01:46:15;;;;;;;15.07;13.73;;;;;;;;;;4973679;28;20496;-76
2022/09/24 01:48:44;;;;;;;15.47;14.07;;;;;;;;;;4973303;28;20469;-76
2022/09/24 01:51:14;;;;;;;15.00;13.70;;;;;;;;;;4974123;28;20508;-76
2022/09/24 01:53:42;;;;;;;16.00;14.60;;;;;;;;;;4972889;28;20901;-76
2022/09/24 01:56:11;;;;;;;16.37;14.87;;;;;;;;;;4973523;28;20515;-77
2022/09/24 01:58:41;;;;;;;15.23;13.93;;;;;;;;;;4973745;28;20468;-75
2022/09/24 02:01:11;;;;;;;15.90;14.27;;;;;;;;;;4974365;28;20902;-76
2022/09/24 02:03:42;;;;;;;15.77;14.40;;;;;;;;;;4972784;28;20441;-76
2022/09/24 02:06:13;;;;;;;16.40;14.73;;;;;;;;;;4973618;28;20445;-76
2022/09/24 02:08:41;;;;;;;15.60;14.10;;;;;;;;;;4973316;28;20560;-76
2022/09/24 02:11:11;;;;;;;17.37;15.73;;;;;;;;;;4973448;28;20547;-77
2022/09/24 02:13:40;;;;;;;16.27;14.77;;;;;;;;;;4972896;28;20495;-76
2022/09/24 02:16:08;;;;;;;15.80;14.30;;;;;;;;;;4973188;28;20539;-76
2022/09/24 02:18:37;;;;;;;15.03;13.73;;;;;;;;;;4972697;28;20919;-75
2022/09/24 02:21:07;;;;;;;15.93;14.57;;;;;;;;;;4989251;28;20855;-75
2022/09/24 02:23:36;;;;;;;15.30;13.90;;;;;;;;;;4991609;28;20960;-77
2022/09/24 02:26:04;;;;;;;15.93;14.53;;;;;;;;;;4992577;28;20510;-76
2022/09/24 02:28:32;;;;;;;15.90;14.40;;;;;;;;;;4992404;28;20546;-76
2022/09/24 02:31:01;;;;;;;16.00;14.70;;;;;;;;;;4992393;28;20526;-76
2022/09/24 02:36:16;;;;;;;17.30;14.53;;;;;;;;;;4992074;28;20412;-74
2022/09/24 02:38:45;;;;;;;16.13;14.63;;;;;;;;;;4992029;28;20484;-76
2022/09/24 02:41:13;;;;;;;15.23;13.73;;;;;;;;;;4992178;28;20448;-77
2022/09/24 02:43:40;;;;;;;16.70;15.30;;;;;;;;;;4991436;28;20448;-77
2022/09/24 02:46:08;;;;;;;17.53;15.20;;;;;;;;;;4991786;28;20441;-76
2022/09/24 02:48:36;;;;;;;16.07;14.57;;;;;;;;;;4992113;28;20468;-76
2022/09/24 02:51:04;;;;;;;16.97;15.33;;;;;;;;;;4991560;28;20535;-77
2022/09/24 02:53:31;;;;;;;16.63;15.13;;;;;;;;;;4991288;28;20476;-76
2022/09/24 02:56:00;;;;;;;18.20;16.50;;;;;;;;;;4991444;28;20472;-77
2022/09/24 02:58:27;;;;;;;17.17;15.33;;;;;;;;;;4991526;28;20468;-77
2022/09/24 03:00:55;;;;;;;16.83;15.40;;;;;;;;;;4991687;28;20448;-76
2022/09/24 03:03:22;;;;;;;17.00;15.50;;;;;;;;;;4991096;28;20864;-76
2022/09/24 03:05:51;;;;;;;17.87;16.30;;;;;;;;;;4991600;28;21085;-76
2022/09/24 03:08:18;;;;;;;17.90;16.30;;;;;;;;;;4991118;28;20880;-76
2022/09/24 03:10:46;;;;;;;17.70;16.20;;;;;;;;;;4991502;28;20445;-75
2022/09/24 03:13:14;;;;;;;17.40;15.63;;;;;;;;;;4990589;28;20575;-76
2022/09/24 03:15:41;;;;;;;17.37;15.47;;;;;;;;;;4991554;28;20491;-77
2022/09/24 03:18:08;;;;;;;18.10;16.40;;;;;;;;;;4991412;28;20452;-75
2022/09/24 03:20:35;;;;;;;17.10;15.60;;;;;;;;;;4991698;28;20503;-76
2022/09/24 03:23:02;;;;;;;18.03;16.43;;;;;;;;;;4990687;28;20440;-76
2022/09/24 03:25:30;;;;;;;19.03;17.13;;;;;;;;;;4991959;28;20451;-76
2022/09/24 03:27:57;;;;;;;19.13;17.43;;;;;;;;;;4991391;28;20506;-76
2022/09/24 03:33:10;;;;;;;17.87;16.40;;;;;;;;;;4990967;28;20487;-76
2022/09/24 03:35:37;;;;;;;18.20;16.60;;;;;;;;;;4991278;28;20925;-76
2022/09/24 03:38:04;;;;;;;17.43;15.60;;;;;;;;;;4991388;28;20451;-75
2022/09/24 03:40:31;;;;;;;17.77;16.17;;;;;;;;;;4991141;28;20526;-75
2022/09/24 03:42:58;;;;;;;18.30;16.80;;;;;;;;;;4990882;28;20495;-76
2022/09/24 03:45:27;;;;;;;16.70;15.20;;;;;;;;;;4991622;28;20506;-76
2022/09/24 03:47:54;;;;;;;17.03;15.63;;;;;;;;;;4992461;28;20883;-76
2022/09/24 03:50:21;;;;;;;16.80;15.10;;;;;;;;;;4992378;28;20554;-77
2022/09/24 03:52:48;;;;;;;17.33;14.63;;;;;;;;;;4990316;28;20962;-75
2022/09/24 03:55:15;;;;;;;18.33;16.60;;;;;;;;;;4991043;28;20455;-78
2022/09/24 03:57:42;;;;;;;17.43;15.73;;;;;;;;;;4990995;28;20456;-75
2022/09/24 04:00:10;;;;;;;17.27;15.67;;;;;;;;;;4990199;28;20476;-76
2022/09/24 04:02:39;;;;;;;16.77;15.27;;;;;;;;;;4990462;28;20468;-76
2022/09/24 04:05:06;;;;;;;16.13;14.63;;;;;;;;;;4990894;28;20480;-75
2022/09/24 04:07:33;;;;;;;17.37;15.67;;;;;;;;;;4990480;28;20464;-77
2022/09/24 04:10:00;;;;;;;17.77;16.40;;;;;;;;;;4981877;28;20480;-76
2022/09/24 04:12:28;;;;;;;18.03;16.53;;;;;;;;;;4990218;28;20510;-77
2022/09/24 04:14:55;;;;;;;18.40;16.60;;;;;;;;;;4990447;28;20476;-76
2022/09/24 04:17:22;;;;;;;16.80;15.30;;;;;;;;;;4990568;28;20448;-76
2022/09/24 04:19:52;;;;;;;16.97;15.50;;;;;;;;;;4990819;28;20535;-75
2022/09/24 04:22:19;;;;;;;16.73;15.23;;;;;;;;;;4990280;28;20447;-76
2022/09/24 04:24:46;;;;;;;18.57;16.93;;;;;;;;;;4989567;28;20448;-77
2022/09/24 04:27:13;;;;;;;18.13;16.33;;;;;;;;;;4990606;28;20539;-76
2022/09/24 04:29:40;;;;;;;18.53;16.83;;;;;;;;;;4990114;28;21018;-76
2022/09/24 04:32:07;;;;;;;17.47;15.77;;;;;;;;;;4990402;28;20449;-77
2022/09/24 04:34:34;;;;;;;17.27;15.70;;;;;;;;;;4989596;28;20558;-76
2022/09/24 04:37:02;;;;;;;17.40;15.80;;;;;;;;;;4990679;28;20444;-76
2022/09/24 04:39:29;;;;;;;18.00;16.30;;;;;;;;;;4990145;28;20468;-78
2022/09/24 04:41:56;;;;;;;17.80;16.30;;;;;;;;;;4989846;28;20858;-77
2022/09/24 04:44:23;;;;;;;16.60;14.90;;;;;;;;;;4987474;28;20455;-76
2022/09/24 04:46:51;;;;;;;17.60;16.00;;;;;;;;;;4990548;28;20455;-76
2022/09/24 04:49:18;;;;;;;16.70;15.20;;;;;;;;;;4986988;28;20468;-77
2022/09/24 04:51:45;;;;;;;17.57;16.07;;;;;;;;;;4990342;28;20455;-77
2022/09/24 04:54:13;;;;;;;17.40;15.90;;;;;;;;;;4989559;28;20484;-77
2022/09/24 04:56:40;;;;;;;16.83;15.33;;;;;;;;;;4989973;28;20464;-75
2022/09/24 04:59:07;;;;;;;17.73;16.03;;;;;;;;;;4990260;28;20451;-77
2022/09/24 05:01:34;;;;;;;17.80;16.17;;;;;;;;;;4990476;28;20448;-75
2022/09/24 05:04:02;;;;;;;17.50;15.80;;;;;;;;;;4990177;28;20446;-76
2022/09/24 05:06:29;;;;;;;17.77;16.07;;;;;;;;;;4990390;28;20583;-76
2022/09/24 05:08:56;;;;;;;17.97;16.30;;;;;;;;;;4990394;28;20479;-76
2022/09/24 05:11:25;;;;;;;16.07;14.77;;;;;;;;;;4993960;28;20444;-76
2022/09/24 05:13:52;;;;;;;17.83;16.20;;;;;;;;;;4993253;28;20479;-76
2022/09/24 05:16:19;;;;;;;17.60;15.90;;;;;;;;;;4993634;28;20793;-76
2022/09/24 05:18:46;;;;;;;18.47;16.90;;;;;;;;;;4993763;28;20518;-77
2022/09/24 05:21:13;;;;;;;16.07;14.73;;;;;;;;;;4993310;28;20452;-75
2022/09/24 05:23:40;;;;;;;16.60;14.93;;;;;;;;;;4992890;28;20440;-77
2022/09/24 05:29:04;;;;;;;16.70;15.20;;;;;;;;;;4933073;29;20450;-76
2022/09/24 05:31:31;;;;;;;17.53;16.10;;;;;;;;;;4979517;28;20947;-76
2022/09/24 05:33:58;;;;;;;17.33;15.83;;;;;;;;;;4992802;28;20484;-77
2022/09/24 05:36:25;;;;;;;17.00;15.40;;;;;;;;;;4993376;28;20444;-77
2022/09/24 05:38:53;;;;;;;15.73;14.37;;;;;;;;;;4993077;28;20905;-77
2022/09/24 05:41:20;;;;;;;16.03;14.60;;;;;;;;;;4993297;28;20520;-76
2022/09/24 05:43:48;;;;;;;16.90;15.40;;;;;;;;;;4992128;28;20444;-76
2022/09/24 05:46:16;;;;;;;15.60;14.10;;;;;;;;;;4993113;28;21031;-77
2022/09/24 05:48:43;;;;;;;17.27;15.57;;;;;;;;;;4993678;28;20599;-76
2022/09/24 05:51:10;;;;;;;17.37;15.77;;;;;;;;;;4993700;28;20448;-77
2022/09/24 05:53:37;;;;;;;17.87;16.20;;;;;;;;;;4992348;28;21011;-76
2022/09/24 05:56:05;;;;;;;17.50;15.77;;;;;;;;;;4993230;28;20448;-77
2022/09/24 05:58:32;;;;;;;15.70;14.30;;;;;;;;;;4993035;28;20468;-76
2022/09/24 06:00:59;;;;;;;16.43;14.80;;;;;;;;;;4993198;28;20461;-77
2022/09/24 06:03:30;;;;;;;17.20;15.40;;;;;;;;;;4992390;28;20479;-75
2022/09/24 06:06:00;;;;;;;15.80;14.43;;;;;;;;;;4993351;28;20862;-76
2022/09/24 06:08:28;;;;;;;16.37;14.83;;;;;;;;;;4992920;28;21007;-76
2022/09/24 06:10:59;;;;;;;16.30;14.87;;;;;;;;;;4993120;28;20444;-77
2022/09/24 06:13:26;;;;;;;16.10;14.60;;;;;;;;;;4992364;28;20448;-77
2022/09/24 06:15:53;;;;;;;15.80;14.50;;;;;;;;;;4992867;28;21165;-78
2022/09/24 06:18:20;;;;;;;16.90;15.20;;;;;;;;;;4992462;28;20514;-77
2022/09/24 06:20:48;;;;;;;16.50;14.93;;;;;;;;;;4992567;28;20444;-76
2022/09/24 06:23:15;;;;;;;16.40;14.90;;;;;;;;;;4991426;28;20449;-77
2022/09/24 06:25:43;;;;;;;15.67;14.00;;;;;;;;;;4992401;28;20471;-77
2022/09/24 06:28:10;;;;;;;16.70;14.90;;;;;;;;;;4992605;28;20444;-76
2022/09/24 06:30:38;;;;;;;17.00;15.53;;;;;;;;;;4992480;28;20499;-77
2022/09/24 06:33:06;;;;;;;16.43;14.93;;;;;;;;;;4991927;28;20446;-76
2022/09/24 06:35:34;;;;;;;15.80;14.40;;;;;;;;;;4992599;28;20520;-76
2022/09/24 06:38:02;;;;;;;15.57;14.07;;;;;;;;;;4992400;28;20539;-76
2022/09/24 06:40:30;;;;;;;17.23;15.47;;;;;;;;;;4992721;28;20455;-77
2022/09/24 06:42:57;;;;;;;17.13;15.53;;;;;;;;;;4991974;28;20502;-77
2022/09/24 06:45:25;;;;;;;30.30;27.20;;;;;;;;;;4993755;28;20444;-77
2022/09/24 06:47:53;;;;;;;24.10;16.63;;;;;;;;;;4993857;28;20457;-76
2022/09/24 06:50:20;;;;;;;16.57;14.70;;;;;;;;;;4993475;28;20436;-76
2022/09/24 06:52:47;;;;;;;16.20;14.87;;;;;;;;;;4987602;28;20519;-76
2022/09/24 06:55:16;;;;;;;15.27;13.97;;;;;;;;;;4990828;28;20487;-78
2022/09/24 06:57:46;;;;;;;17.00;14.80;;;;;;;;;;4993034;28;20531;-78
2022/09/24 07:00:14;;;;;;;15.20;13.90;;;;;;;;;;4993198;28;20559;-78
2022/09/24 07:02:41;;;;;;;16.07;14.77;;;;;;;;;;4991043;28;20444;-77
2022/09/24 07:05:09;;;;;;;15.87;14.47;;;;;;;;;;4992119;28;20440;-77
2022/09/24 07:07:36;;;;;;;15.13;13.93;;;;;;;;;;4992800;28;20522;-78
2022/09/24 07:10:05;;;;;;;16.77;15.27;;;;;;;;;;4991612;28;20468;-76
2022/09/24 07:12:33;;;;;;;16.87;15.20;;;;;;;;;;4990881;28;20444;-77
2022/09/24 07:15:01;;;;;;;15.83;14.33;;;;;;;;;;4991631;28;20476;-76
2022/09/24 07:17:28;;;;;;;17.97;16.07;;;;;;;;;;4991672;28;20522;-77
2022/09/24 07:19:55;;;;;;;17.33;15.67;;;;;;;;;;4991571;28;20940;-76
2022/09/24 07:22:22;;;;;;;15.73;14.30;;;;;;;;;;4992273;28;20510;-77
2022/09/24 07:24:49;;;;;;;15.90;14.57;;;;;;;;;;4990987;28;20441;-76
2022/09/24 07:27:18;;;;;;;16.00;14.40;;;;;;;;;;4991633;28;20448;-77
2022/09/24 07:29:46;;;;;;;15.80;14.40;;;;;;;;;;4991707;28;20472;-77
2022/09/24 07:32:13;;;;;;;14.93;13.50;;;;;;;;;;4992205;28;20444;-77
2022/09/24 07:34:41;;;;;;;15.87;14.37;;;;;;;;;;4990282;28;20491;-77
2022/09/24 07:37:08;;;;;;;15.37;14.07;;;;;;;;;;4999191;28;20537;-77
2022/09/24 07:39:35;;;;;;;14.60;13.20;;;;;;;;;;5000661;28;20460;-77
2022/09/24 07:42:02;;;;;;;15.13;13.70;;;;;;;;;;5000821;28;20443;-76
2022/09/24 07:44:30;;;;;;;15.73;14.43;;;;;;;;;;5000434;28;20557;-75
2022/09/24 07:46:58;;;;;;;15.33;14.00;;;;;;;;;;5000539;28;20448;-77
2022/09/24 07:49:27;;;;;;;15.67;14.33;;;;;;;;;;5002193;28;20468;-76
2022/09/24 07:51:54;;;;;;;14.63;13.43;;;;;;;;;;4992298;28;20448;-77
2022/09/24 07:54:21;;;;;;;15.00;13.70;;;;;;;;;;4991217;28;20499;-77
2022/09/24 07:56:48;;;;;;;15.13;13.80;;;;;;;;;;4992018;28;20451;-76
2022/09/24 07:59:16;;;;;;;15.83;14.33;;;;;;;;;;4991656;28;20471;-77
2022/09/24 08:01:43;;;;;;;16.13;14.30;;;;;;;;;;4991478;28;20444;-77
2022/09/24 08:04:11;;;;;;;14.50;13.23;;;;;;;;;;4990655;28;20455;-76
2022/09/24 08:06:38;;;;;;;14.97;13.60;;;;;;;;;;4991487;28;20444;-77
2022/09/24 08:09:05;;;;;;;17.63;15.90;;;;;;;;;;4991210;28;20460;-77
2022/09/24 08:11:33;;;;;;;16.87;14.43;;;;;;;;;;4991197;28;20444;-76
2022/09/24 08:14:00;;;;;;;15.20;13.90;;;;;;;;;;4990320;28;20499;-76
2022/09/24 08:16:27;;;;;;;20.23;13.77;;;;;;;;;;4991524;28;20444;-76
2022/09/24 08:18:54;;;;;;;15.10;13.80;;;;;;;;;;4992813;28;20551;-76
2022/09/24 08:21:23;;;;;;;15.50;14.00;;;;;;;;;;4993847;28;20464;-77
2022/09/24 08:23:50;;;;;;;15.00;13.90;;;;;;;;;;4994684;28;20525;-77
2022/09/24 08:26:17;;;;;;;14.47;13.27;;;;;;;;;;4996360;28;20441;-77
2022/09/24 08:28:44;;;;;;;15.60;14.33;;;;;;;;;;4997799;28;20464;-76
2022/09/24 08:31:12;;;;;;;15.20;13.70;;;;;;;;;;4996669;28;20445;-77
2022/09/24 08:33:39;;;;;;;15.07;13.67;;;;;;;;;;4995656;28;20459;-77
2022/09/24 08:36:07;;;;;;;15.37;14.17;;;;;;;;;;4997105;28;20488;-77
2022/09/24 08:38:36;;;;;;;22.43;20.53;;;;;;;;;;4995013;28;20491;-77
2022/09/24 08:41:08;;;;;;;15.53;14.23;;;;;;;;;;4991535;28;20937;-76
2022/09/24 08:43:41;;;;;;;14.37;13.13;;;;;;;;;;4991390;28;20512;-77
2022/09/24 08:48:59;;;;;;;15.63;14.13;;;;;;;;;;4996617;28;20630;-78
2022/09/24 08:51:27;;;;;;;13.90;12.70;;;;;;;;;;4997779;28;20440;-77
2022/09/24 08:53:59;;;;;;;13.87;12.67;;;;;;;;;;4996286;28;20460;-77
2022/09/24 08:56:27;;;;;;;13.93;12.60;;;;;;;;;;4997045;28;20514;-77
2022/09/24 08:58:57;;;;;;;13.93;12.80;;;;;;;;;;4993098;28;20475;-78
2022/09/24 09:01:28;;;;;;;13.97;12.67;;;;;;;;;;4982249;28;20947;-77
2022/09/24 09:03:57;;;;;;;13.30;12.20;;;;;;;;;;4994931;28;20440;-77
2022/09/24 09:06:40;;;;;;;13.63;12.33;;;;;;;;;;4995551;28;20809;-77
2022/09/24 09:09:12;;;;;;;15.40;11.87;;;;;;;;;;4994690;28;20464;-76
2022/09/24 09:11:40;;;;;;;13.13;11.93;;;;;;;;;;4994635;28;20452;-77
2022/09/24 09:14:09;;;;;;;12.37;11.27;;;;;;;;;;4993891;28;20456;-77
2022/09/24 09:16:43;;;;;;;13.13;11.83;;;;;;;;;;4994031;28;20523;-75
2022/09/24 09:19:13;;;;;;;14.13;12.83;;;;;;;;;;4994188;28;20463;-76
2022/09/24 09:21:41;;;;;;;12.43;10.77;;;;;;;;;;4993874;28;20475;-77
2022/09/24 09:24:16;;;;;;;11.50;10.40;;;;;;;;;;4988960;28;20488;-76
2022/09/24 09:26:43;;;;;;;11.07;10.00;;;;;;;;;;4993922;28;20455;-77
2022/09/24 09:29:11;;;;;;;11.57;10.57;;;;;;;;;;4993962;28;21366;-76
2022/09/24 09:31:42;;;;;;;14.90;13.50;;;;;;;;;;4994239;28;20444;-77
2022/09/24 09:34:18;;;;;;;13.70;9.90;;;;;;;;;;4993298;28;20455;-77
2022/09/24 09:36:53;;;;;;;11.93;10.70;;;;;;;;;;4994027;28;20443;-77
2022/09/24 09:39:28;;;;;;;11.53;10.47;;;;;;;;;;4993796;28;20518;-77
2022/09/24 09:41:58;;;;;;;11.33;10.10;;;;;;;;;;4993943;28;20475;-77
2022/09/24 09:44:26;;;;;;;7.97;7.13;;;;;;;;;;4993124;28;20832;-76
2022/09/24 09:46:57;;;;;;;6.47;5.97;;;;;;;;;;4993703;28;20451;-76
2022/09/24 09:49:27;;;;;;;4.50;4.20;;;;;;;;;;4993714;28;20468;-76
2022/09/24 09:51:57;;;;;;;3.93;3.63;;;;;;;;;;4993222;28;20475;-76
2022/09/24 09:54:35;;;;;;;4.60;4.30;;;;;;;;;;4992778;28;20444;-76
2022/09/24 09:57:03;;;;;;;4.23;3.93;;;;;;;;;;4992181;28;21066;-77
2022/09/24 09:59:33;;;;;;;4.03;3.70;;;;;;;;;;4993290;28;20530;-77
2022/09/24 10:02:00;;;;;;;4.77;4.47;;;;;;;;;;4993324;28;20444;-76
2022/09/24 10:04:39;;;;;;;4.63;4.23;;;;;;;;;;4992904;28;20499;-76
2022/09/24 10:07:07;;;;;;;4.67;4.37;;;;;;;;;;4993478;28;20464;-77
2022/09/24 10:09:36;;;;;;;5.90;5.40;;;;;;;;;;4992842;28;20937;-75
2022/09/24 10:12:07;;;;;;;4.93;4.53;;;;;;;;;;4993012;28;21268;-76
2022/09/24 10:14:34;;;;;;;4.80;3.90;;;;;;;;;;4992335;28;20883;-75
2022/09/24 10:17:04;;;;;;;4.63;4.23;;;;;;;;;;4993325;28;20503;-77
2022/09/24 10:19:32;;;;;;;7.07;6.57;;;;;;;;;;4993473;28;20563;-78
2022/09/24 10:21:59;;;;;;;5.77;5.10;;;;;;;;;;4993144;28;20444;-77
2022/09/24 10:24:27;;;;;;;5.10;4.70;;;;;;;;;;4992672;28;20455;-76
2022/09/24 10:26:56;;;;;;;4.63;4.23;;;;;;;;;;4993190;28;20815;-76
2022/09/24 10:32:14;;;;;;;4.93;4.43;;;;;;;;;;4993195;28;20897;-77
2022/09/24 10:34:41;;;;;;;5.20;4.70;;;;;;;;;;4992901;28;20900;-78
2022/09/24 10:37:14;;;;;;;4.60;4.30;;;;;;;;;;4992955;28;20433;-77
2022/09/24 10:39:41;;;;;;;4.57;4.13;;;;;;;;;;4993261;28;20507;-76
2022/09/24 10:42:23;;;;;;;4.93;4.53;;;;;;;;;;4992758;28;20987;-78
2022/09/24 10:44:50;;;;;;;6.20;5.70;;;;;;;;;;4992405;28;20667;-77
2022/09/24 10:47:23;;;;;;;5.93;5.43;;;;;;;;;;4992804;28;20452;-77
2022/09/24 10:50:04;;;;;;;5.10;4.70;;;;;;;;;;4992714;28;20468;-77
2022/09/24 10:52:37;;;;;;;4.50;4.10;;;;;;;;;;4979680;28;20464;-76
2022/09/24 10:55:08;;;;;;;5.70;5.20;;;;;;;;;;4992590;28;20480;-75
2022/09/24 10:57:40;;;;;;;5.70;5.07;;;;;;;;;;4989416;28;20453;-76
2022/09/24 11:00:09;;;;;;;5.47;5.10;;;;;;;;;;4990263;28;20480;-76
2022/09/24 11:02:46;;;;;;;4.97;4.67;;;;;;;;;;4991619;28;20479;-76
2022/09/24 11:05:16;;;;;;;4.90;4.50;;;;;;;;;;4992576;28;20448;-76
2022/09/24 11:07:47;;;;;;;6.40;5.90;;;;;;;;;;4992966;28;20957;-77
2022/09/24 11:10:19;;;;;;;6.17;5.67;;;;;;;;;;4992238;28;20464;-76
2022/09/24 11:12:51;;;;;;;6.27;5.77;;;;;;;;;;4991665;28;20532;-77
2022/09/24 11:15:26;;;;;;;5.33;4.93;;;;;;;;;;4991809;28;20566;-76
2022/09/24 11:18:01;;;;;;;5.30;5.00;;;;;;;;;;4991874;28;20447;-77
2022/09/24 11:20:31;;;;;;;5.00;4.60;;;;;;;;;;4991644;28;20475;-76
2022/09/24 11:23:07;;;;;;;5.30;4.90;;;;;;;;;;4990699;28;20931;-76
2022/09/24 11:25:38;;;;;;;5.20;4.90;;;;;;;;;;4991083;28;20435;-75
2022/09/24 11:28:13;;;;;;;6.07;4.17;;;;;;;;;;4991486;28;20452;-76
2022/09/24 11:30:46;;;;;;;4.43;4.10;;;;;;;;;;4991578;28;20932;-76
2022/09/24 11:33:23;;;;;;;12.30;11.20;;;;;;;;;;4991276;28;20511;-78
2022/09/24 11:35:57;;;;;;;5.10;4.60;;;;;;;;;;4992255;28;20716;-77
2022/09/24 11:38:28;;;;;;;4.47;4.10;;;;;;;;;;4996598;28;20476;-77
2022/09/24 11:41:03;;;;;;;4.13;3.83;;;;;;;;;;4995522;28;20475;-76
2022/09/24 11:43:38;;;;;;;4.43;4.13;;;;;;;;;;4991289;28;20452;-77
2022/09/24 11:46:12;;;;;;;6.00;5.60;;;;;;;;;;4991198;28;20444;-76
2022/09/24 11:48:53;;;;;;;4.77;4.33;;;;;;;;;;4991262;28;20468;-77
2022/09/24 11:51:28;;;;;;;4.43;4.13;;;;;;;;;;4991738;28;20537;-75
2022/09/24 11:53:59;;;;;;;4.40;4.10;;;;;;;;;;4992363;28;20506;-77
2022/09/24 11:56:30;;;;;;;6.17;4.70;;;;;;;;;;4991321;28;20923;-76
2022/09/24 11:59:01;;;;;;;5.30;4.90;;;;;;;;;;4992599;28;20492;-78
2022/09/24 12:01:29;;;;;;;4.70;4.30;;;;;;;;;;4994369;28;20448;-78
2022/09/24 12:03:59;;;;;;;5.27;4.77;;;;;;;;;;4992128;28;20566;-76
2022/09/24 12:06:30;;;;;;;5.73;5.23;;;;;;;;;;4991895;28;20539;-77
2022/09/24 12:09:00;;;;;;;6.13;5.53;;;;;;;;;;4990558;28;20494;-77
2022/09/24 12:11:31;;;;;;;6.20;5.70;;;;;;;;;;4989604;28;20986;-77
2022/09/24 12:14:02;;;;;;;5.77;5.13;;;;;;;;;;4992673;28;20475;-78
2022/09/24 12:16:31;;;;;;;5.00;4.70;;;;;;;;;;4991424;28;20483;-77
2022/09/24 12:19:02;;;;;;;10.70;9.63;;;;;;;;;;4991700;28;20555;-76
2022/09/24 12:21:31;;;;;;;6.77;6.27;;;;;;;;;;4992088;28;20452;-78
2022/09/24 12:24:01;;;;;;;6.07;5.57;;;;;;;;;;4991450;28;20440;-77
2022/09/24 12:26:30;;;;;;;5.97;5.47;;;;;;;;;;4992096;28;20440;-77
2022/09/24 12:34:41;;;;;;;8.00;5.30;;;;;;;;;;4992201;28;20436;-79
2022/09/24 12:37:09;;;;;;;6.30;5.80;;;;;;;;;;4992688;28;20469;-78
2022/09/24 12:39:38;;;;;;;7.20;5.50;;;;;;;;;;4992812;28;20464;-79
2022/09/24 12:42:07;;;;;;;7.60;5.90;;;;;;;;;;4990710;28;20448;-78
2022/09/24 12:44:40;;;;;;;5.53;5.10;;;;;;;;;;4992485;28;21048;-78
2022/09/24 12:47:14;;;;;;;5.23;4.83;;;;;;;;;;4993317;28;20789;-79
2022/09/24 12:49:42;;;;;;;5.03;4.70;;;;;;;;;;4992614;28;20463;-77
2022/09/24 12:52:17;;;;;;;5.90;5.47;;;;;;;;;;4992925;28;20449;-77
2022/09/24 12:54:44;;;;;;;6.30;5.80;;;;;;;;;;4991522;28;20466;-75
2022/09/24 12:57:14;;;;;;;7.50;6.20;;;;;;;;;;4987764;28;20527;-77
2022/09/24 12:59:49;;;;;;;6.33;5.87;;;;;;;;;;4992739;28;20484;-77
2022/09/24 13:02:19;;;;;;;5.50;5.07;;;;;;;;;;4991787;28;20444;-79
2022/09/24 13:04:50;;;;;;;5.10;4.80;;;;;;;;;;4992669;28;20459;-78
2022/09/24 13:07:28;;;;;;;6.50;5.23;;;;;;;;;;4977440;28;20532;-78
2022/09/24 13:09:55;;;;;;;5.37;5.07;;;;;;;;;;4993667;28;20487;-79
2022/09/24 13:12:23;;;;;;;6.10;5.60;;;;;;;;;;4993054;28;20466;-78
2022/09/24 13:14:52;;;;;;;7.10;6.37;;;;;;;;;;4991671;28;20826;-77
2022/09/24 13:17:21;;;;;;;7.50;6.90;;;;;;;;;;4991419;28;20595;-78
2022/09/24 13:19:50;;;;;;;7.03;6.53;;;;;;;;;;4992589;28;20469;-79
2022/09/24 13:22:21;;;;;;;14.40;8.47;;;;;;;;;;4987240;28;20436;-77
2022/09/24 13:24:49;;;;;;;8.50;6.70;;;;;;;;;;4989917;28;20462;-77
2022/09/24 13:27:24;;;;;;;8.67;7.90;;;;;;;;;;4990316;28;20448;-77
2022/09/24 13:30:03;;;;;;;7.90;7.27;;;;;;;;;;4973594;28;20555;-77
2022/09/24 13:32:33;;;;;;;8.63;6.83;;;;;;;;;;4987007;28;20445;-77
2022/09/24 13:35:04;;;;;;;8.40;7.70;;;;;;;;;;4994500;28;20432;-79
2022/09/24 13:37:35;;;;;;;8.80;8.00;;;;;;;;;;4994534;28;20471;-77
2022/09/24 13:40:04;;;;;;;8.30;7.60;;;;;;;;;;4993930;28;20567;-78
2022/09/24 13:42:34;;;;;;;8.47;7.80;;;;;;;;;;4992688;28;20452;-77
2022/09/24 13:45:02;;;;;;;8.67;7.87;;;;;;;;;;4994341;28;20944;-78
2022/09/24 13:47:31;;;;;;;8.23;7.40;;;;;;;;;;4993232;28;20437;-77
2022/09/24 13:50:03;;;;;;;9.40;8.60;;;;;;;;;;4993235;28;20471;-78
2022/09/24 13:52:33;;;;;;;8.77;8.07;;;;;;;;;;4993079;28;20433;-77
2022/09/24 13:55:03;;;;;;;9.80;8.37;;;;;;;;;;4992909;28;20941;-77
2022/09/24 13:57:31;;;;;;;7.53;6.93;;;;;;;;;;4993066;28;20484;-76
2022/09/24 14:00:15;;;;;;;7.50;6.90;;;;;;;;;;4992770;28;20964;-78
2022/09/24 14:02:44;;;;;;;7.27;6.77;;;;;;;;;;4995160;28;20448;-76
2022/09/24 14:05:16;;;;;;;7.70;7.10;;;;;;;;;;5002077;28;20452;-77
2022/09/24 14:07:46;;;;;;;8.00;7.40;;;;;;;;;;5000651;28;20445;-77
2022/09/24 14:10:25;;;;;;;7.90;7.30;;;;;;;;;;4999790;28;20469;-79
2022/09/24 14:13:25;;;;;;;9.10;8.10;;;;;;;;;;4996688;28;20719;-77
2022/09/24 14:15:56;;;;;;;9.50;8.60;;;;;;;;;;4994147;28;20956;-77
2022/09/24 14:18:23;;;;;;;9.00;8.13;;;;;;;;;;4992826;28;20468;-78
2022/09/24 14:20:53;;;;;;;10.27;9.33;;;;;;;;;;4993342;28;20437;-77
2022/09/24 14:23:22;;;;;;;9.90;9.10;;;;;;;;;;4992775;28;20905;-77
2022/09/24 14:25:51;;;;;;;9.93;8.00;;;;;;;;;;4993958;28;20448;-78
2022/09/24 14:28:19;;;;;;;8.83;8.13;;;;;;;;;;4989359;28;20469;-77
2022/09/24 14:30:49;;;;;;;11.73;10.77;;;;;;;;;;4992719;28;20449;-77
2022/09/24 14:33:18;;;;;;;9.27;8.50;;;;;;;;;;4992119;28;20445;-77
2022/09/24 14:35:46;;;;;;;8.67;7.93;;;;;;;;;;4993334;28;20861;-77
2022/09/24 14:38:17;;;;;;;8.20;7.50;;;;;;;;;;4992825;28;20500;-79
2022/09/24 14:40:46;;;;;;;9.50;8.70;;;;;;;;;;4994593;28;20551;-78
2022/09/24 14:43:18;;;;;;;8.13;7.50;;;;;;;;;;4994536;28;20448;-78
2022/09/24 14:45:46;;;;;;;8.87;7.97;;;;;;;;;;4993951;28;20467;-77
2022/09/24 14:48:21;;;;;;;8.37;7.40;;;;;;;;;;4993432;28;20920;-77
2022/09/24 14:50:48;;;;;;;8.33;7.53;;;;;;;;;;4994614;28;20444;-78
2022/09/24 14:53:22;;;;;;;8.37;7.77;;;;;;;;;;4993552;28;20452;-77
2022/09/24 14:55:49;;;;;;;8.67;7.97;;;;;;;;;;4993919;28;20543;-77
2022/09/24 14:58:23;;;;;;;8.80;8.10;;;;;;;;;;4993204;28;20492;-77
2022/09/24 15:00:53;;;;;;;9.10;8.40;;;;;;;;;;4995095;28;20455;-78